sensor_id;sensor_type;location;lat;lon;timestamp;temperature;humidity
12481;DHT22;6305;48.398;11.762;2023-11-21T00:00:15;5.30;99.90
12481;DHT22;6305;48.398;11.762;2023-11-21T00:02:44;5.20;99.90
12481;DHT22;6305;48.398;11.762;2023-11-21T00:05:12;5.20;99.90
12481;DHT22;6305;48.398;11.762;2023-11-21T00:07:41;5.10;99.90
12481;DHT22;6305;48.398;11.762;2023-11-21T00:10:10;5.00;99.90
12481;DHT22;6305;48.398;11.762;2023-11-21T00:12:37;5.00;99.90
12481;DHT22;6305;48.398;11.762;2023-11-21T00:15:08;5.00;99.90
12481;DHT22;6305;48.398;11.762;2023-11-21T00:17:38;5.10;99.90
12481;DHT22;6305;48.398;11.762;2023-11-21T00:20:06;5.10;99.90
12481;DHT22;6305;48.398;11.762;2023-11-21T00:22:34;5.10;99.90
12481;DHT22;6305;48.398;11.762;2023-11-21T00:25:01;5.10;99.90
12481;DHT22;6305;48.398;11.762;2023-11-21T00:27:29;5.10;99.90
12481;DHT22;6305;48.398;11.762;2023-11-21T00:29:57;5.10;99.90
12481;DHT22;6305;48.398;11.762;2023-11-21T00:32:24;5.10;99.90
12481;DHT22;6305;48.398;11.762;2023-11-21T00:34:53;5.10;99.90
12481;DHT22;6305;48.398;11.762;2023-11-21T00:37:21;5.10;99.90
12481;DHT22;6305;48.398;11.762;2023-11-21T00:39:49;5.10;99.90
12481;DHT22;6305;48.398;11.762;2023-11-21T00:42:16;5.10;99.90
12481;DHT22;6305;48.398;11.762;2023-11-21T00:44:45;5.20;99.90
12481;DHT22;6305;48.398;11.762;2023-11-21T00:47:12;5.30;99.90
12481;DHT22;6305;48.398;11.762;2023-11-21T00:49:40;5.30;99.90
12481;DHT22;6305;48.398;11.762;2023-11-21T00:52:08;5.30;99.90
12481;DHT22;6305;48.398;11.762;2023-11-21T00:54:36;5.40;99.90
12481;DHT22;6305;48.398;11.762;2023-11-21T00:57:03;5.40;99.90
12481;DHT22;6305;48.398;11.762;2023-11-21T00:59:30;5.50;99.90
12481;DHT22;6305;48.398;11.762;2023-11-21T01:01:57;5.50;99.90
12481;DHT22;6305;48.398;11.762;2023-11-21T01:04:26;5.50;99.90
12481;DHT22;6305;48.398;11.762;2023-11-21T01:06:54;5.60;99.90
12481;DHT22;6305;48.398;11.762;2023-11-21T01:09:22;5.60;99.90
12481;DHT22;6305;48.398;11.762;2023-11-21T01:11:51;5.60;99.90
12481;DHT22;6305;48.398;11.762;2023-11-21T01:14:19;5.60;99.90
12481;DHT22;6305;48.398;11.762;2023-11-21T01:16:46;5.60;99.90
12481;DHT22;6305;48.398;11.762;2023-11-21T01:19:14;5.60;99.90
12481;DHT22;6305;48.398;11.762;2023-11-21T01:21:41;5.60;99.90
12481;DHT22;6305;48.398;11.762;2023-11-21T01:24:08;5.60;99.90
12481;DHT22;6305;48.398;11.762;2023-11-21T01:26:37;5.70;99.90
12481;DHT22;6305;48.398;11.762;2023-11-21T01:29:04;5.60;99.90
12481;DHT22;6305;48.398;11.762;2023-11-21T01:31:31;5.70;99.90
12481;DHT22;6305;48.398;11.762;2023-11-21T01:33:58;5.70;99.90
12481;DHT22;6305;48.398;11.762;2023-11-21T01:36:30;5.80;99.90
12481;DHT22;6305;48.398;11.762;2023-11-21T01:38:58;5.90;99.90
12481;DHT22;6305;48.398;11.762;2023-11-21T01:41:26;6.00;99.90
12481;DHT22;6305;48.398;11.762;2023-11-21T01:43:55;6.10;99.90
12481;DHT22;6305;48.398;11.762;2023-11-21T01:46:23;6.10;99.90
12481;DHT22;6305;48.398;11.762;2023-11-21T01:48:50;6.10;99.90
12481;DHT22;6305;48.398;11.762;2023-11-21T01:51:18;6.20;99.90
12481;DHT22;6305;48.398;11.762;2023-11-21T01:53:46;6.20;99.90
12481;DHT22;6305;48.398;11.762;2023-11-21T01:56:14;6.20;99.90
12481;DHT22;6305;48.398;11.762;2023-11-21T01:58:42;6.20;99.90
12481;DHT22;6305;48.398;11.762;2023-11-21T02:01:10;6.20;99.90
12481;DHT22;6305;48.398;11.762;2023-11-21T02:03:37;6.20;99.90
12481;DHT22;6305;48.398;11.762;2023-11-21T02:06:05;6.20;99.90
12481;DHT22;6305;48.398;11.762;2023-11-21T02:08:32;6.20;99.90
12481;DHT22;6305;48.398;11.762;2023-11-21T02:10:59;6.20;99.90
12481;DHT22;6305;48.398;11.762;2023-11-21T02:13:28;6.20;99.90
12481;DHT22;6305;48.398;11.762;2023-11-21T02:15:55;6.20;99.90
12481;DHT22;6305;48.398;11.762;2023-11-21T02:18:24;6.20;99.90
12481;DHT22;6305;48.398;11.762;2023-11-21T02:20:51;6.30;99.90
12481;DHT22;6305;48.398;11.762;2023-11-21T02:23:19;6.20;99.90
12481;DHT22;6305;48.398;11.762;2023-11-21T02:25:47;6.30;99.90
12481;DHT22;6305;48.398;11.762;2023-11-21T02:28:15;6.20;99.90
12481;DHT22;6305;48.398;11.762;2023-11-21T02:30:52;6.20;99.90
12481;DHT22;6305;48.398;11.762;2023-11-21T02:33:21;6.20;99.90
12481;DHT22;6305;48.398;11.762;2023-11-21T02:35:49;6.20;99.90
12481;DHT22;6305;48.398;11.762;2023-11-21T02:38:18;6.20;99.90
12481;DHT22;6305;48.398;11.762;2023-11-21T02:40:45;6.20;99.90
12481;DHT22;6305;48.398;11.762;2023-11-21T02:43:12;6.20;99.90
12481;DHT22;6305;48.398;11.762;2023-11-21T02:45:39;6.20;99.90
12481;DHT22;6305;48.398;11.762;2023-11-21T02:48:07;6.10;99.90
12481;DHT22;6305;48.398;11.762;2023-11-21T02:50:35;6.10;99.90
12481;DHT22;6305;48.398;11.762;2023-11-21T02:53:03;6.10;99.90
12481;DHT22;6305;48.398;11.762;2023-11-21T02:55:32;6.10;99.90
12481;DHT22;6305;48.398;11.762;2023-11-21T02:58:01;6.10;99.90
12481;DHT22;6305;48.398;11.762;2023-11-21T03:00:28;6.00;99.90
12481;DHT22;6305;48.398;11.762;2023-11-21T03:02:56;6.00;99.90
12481;DHT22;6305;48.398;11.762;2023-11-21T03:05:23;6.00;99.90
12481;DHT22;6305;48.398;11.762;2023-11-21T03:07:50;6.00;99.90
12481;DHT22;6305;48.398;11.762;2023-11-21T03:10:17;6.00;99.90
12481;DHT22;6305;48.398;11.762;2023-11-21T03:12:46;6.00;99.90
12481;DHT22;6305;48.398;11.762;2023-11-21T03:15:13;6.00;99.90
12481;DHT22;6305;48.398;11.762;2023-11-21T03:17:40;6.00;99.90
12481;DHT22;6305;48.398;11.762;2023-11-21T03:20:08;6.00;99.90
12481;DHT22;6305;48.398;11.762;2023-11-21T03:22:36;5.90;99.90
12481;DHT22;6305;48.398;11.762;2023-11-21T03:25:04;5.90;99.90
12481;DHT22;6305;48.398;11.762;2023-11-21T03:27:31;5.90;99.90
12481;DHT22;6305;48.398;11.762;2023-11-21T03:30:00;5.90;99.90
12481;DHT22;6305;48.398;11.762;2023-11-21T03:32:29;6.00;99.90
12481;DHT22;6305;48.398;11.762;2023-11-21T03:34:58;6.00;99.90
12481;DHT22;6305;48.398;11.762;2023-11-21T03:37:27;6.00;99.90
12481;DHT22;6305;48.398;11.762;2023-11-21T03:39:55;5.90;99.90
12481;DHT22;6305;48.398;11.762;2023-11-21T03:42:22;6.00;99.90
12481;DHT22;6305;48.398;11.762;2023-11-21T03:44:51;6.00;99.90
12481;DHT22;6305;48.398;11.762;2023-11-21T03:47:20;6.00;99.90
12481;DHT22;6305;48.398;11.762;2023-11-21T03:49:47;6.00;99.90
12481;DHT22;6305;48.398;11.762;2023-11-21T03:52:16;6.00;99.90
12481;DHT22;6305;48.398;11.762;2023-11-21T03:54:43;5.90;99.90
12481;DHT22;6305;48.398;11.762;2023-11-21T03:57:10;5.90;99.90
12481;DHT22;6305;48.398;11.762;2023-11-21T03:59:39;5.80;99.90
12481;DHT22;6305;48.398;11.762;2023-11-21T04:02:06;5.60;99.90
12481;DHT22;6305;48.398;11.762;2023-11-21T04:04:35;5.50;99.90
12481;DHT22;6305;48.398;11.762;2023-11-21T04:07:03;5.40;99.90
12481;DHT22;6305;48.398;11.762;2023-11-21T04:09:30;5.40;99.90
12481;DHT22;6305;48.398;11.762;2023-11-21T04:11:57;5.40;99.90
12481;DHT22;6305;48.398;11.762;2023-11-21T04:14:24;5.30;99.90
12481;DHT22;6305;48.398;11.762;2023-11-21T04:16:51;5.30;99.90
12481;DHT22;6305;48.398;11.762;2023-11-21T04:19:19;5.20;99.90
12481;DHT22;6305;48.398;11.762;2023-11-21T04:21:48;5.20;99.90
12481;DHT22;6305;48.398;11.762;2023-11-21T04:24:15;5.20;99.90
12481;DHT22;6305;48.398;11.762;2023-11-21T04:26:42;5.20;99.90
12481;DHT22;6305;48.398;11.762;2023-11-21T04:29:09;5.10;99.90
12481;DHT22;6305;48.398;11.762;2023-11-21T04:31:36;5.10;99.90
12481;DHT22;6305;48.398;11.762;2023-11-21T04:34:04;5.10;99.90
12481;DHT22;6305;48.398;11.762;2023-11-21T04:36:31;5.20;99.90
12481;DHT22;6305;48.398;11.762;2023-11-21T04:38:59;5.30;99.90
12481;DHT22;6305;48.398;11.762;2023-11-21T04:41:26;5.30;99.90
12481;DHT22;6305;48.398;11.762;2023-11-21T04:43:53;5.40;99.90
12481;DHT22;6305;48.398;11.762;2023-11-21T04:46:20;5.30;99.90
12481;DHT22;6305;48.398;11.762;2023-11-21T04:48:48;5.40;99.90
12481;DHT22;6305;48.398;11.762;2023-11-21T04:51:15;5.40;99.90
12481;DHT22;6305;48.398;11.762;2023-11-21T04:53:42;5.30;99.90
12481;DHT22;6305;48.398;11.762;2023-11-21T04:56:10;5.30;99.90
12481;DHT22;6305;48.398;11.762;2023-11-21T04:58:38;5.30;99.90
12481;DHT22;6305;48.398;11.762;2023-11-21T05:01:07;5.30;99.90
12481;DHT22;6305;48.398;11.762;2023-11-21T05:03:34;5.30;99.90
12481;DHT22;6305;48.398;11.762;2023-11-21T05:06:01;5.30;99.90
12481;DHT22;6305;48.398;11.762;2023-11-21T05:08:30;5.30;99.90
12481;DHT22;6305;48.398;11.762;2023-11-21T05:10:57;5.30;99.90
12481;DHT22;6305;48.398;11.762;2023-11-21T05:13:26;5.20;99.90
12481;DHT22;6305;48.398;11.762;2023-11-21T05:15:54;5.10;99.90
12481;DHT22;6305;48.398;11.762;2023-11-21T05:18:22;5.10;99.90
12481;DHT22;6305;48.398;11.762;2023-11-21T05:20:52;5.00;99.90
12481;DHT22;6305;48.398;11.762;2023-11-21T05:23:20;4.90;99.90
12481;DHT22;6305;48.398;11.762;2023-11-21T05:25:47;4.90;99.90
12481;DHT22;6305;48.398;11.762;2023-11-21T05:28:14;4.90;99.90
12481;DHT22;6305;48.398;11.762;2023-11-21T05:30:43;4.90;99.90
12481;DHT22;6305;48.398;11.762;2023-11-21T05:33:10;4.80;99.90
12481;DHT22;6305;48.398;11.762;2023-11-21T05:35:38;4.70;99.90
12481;DHT22;6305;48.398;11.762;2023-11-21T05:38:05;4.60;99.90
12481;DHT22;6305;48.398;11.762;2023-11-21T05:40:32;4.50;99.90
12481;DHT22;6305;48.398;11.762;2023-11-21T05:42:59;4.50;99.90
12481;DHT22;6305;48.398;11.762;2023-11-21T05:45:26;4.40;99.90
12481;DHT22;6305;48.398;11.762;2023-11-21T05:47:58;4.30;99.90
12481;DHT22;6305;48.398;11.762;2023-11-21T05:50:25;4.20;99.90
12481;DHT22;6305;48.398;11.762;2023-11-21T05:52:52;4.20;99.90
12481;DHT22;6305;48.398;11.762;2023-11-21T05:55:22;4.10;99.90
12481;DHT22;6305;48.398;11.762;2023-11-21T05:57:51;4.00;99.90
12481;DHT22;6305;48.398;11.762;2023-11-21T06:00:19;4.00;99.90
12481;DHT22;6305;48.398;11.762;2023-11-21T06:02:47;3.90;99.90
12481;DHT22;6305;48.398;11.762;2023-11-21T06:05:17;3.90;99.90
12481;DHT22;6305;48.398;11.762;2023-11-21T06:07:44;3.80;99.90
12481;DHT22;6305;48.398;11.762;2023-11-21T06:10:12;3.70;99.90
12481;DHT22;6305;48.398;11.762;2023-11-21T06:12:40;3.70;99.90
12481;DHT22;6305;48.398;11.762;2023-11-21T06:15:09;3.60;99.90
12481;DHT22;6305;48.398;11.762;2023-11-21T06:17:39;3.60;99.90
12481;DHT22;6305;48.398;11.762;2023-11-21T06:20:09;3.70;99.90
12481;DHT22;6305;48.398;11.762;2023-11-21T06:22:45;3.70;99.90
12481;DHT22;6305;48.398;11.762;2023-11-21T06:25:13;3.70;99.90
12481;DHT22;6305;48.398;11.762;2023-11-21T06:27:41;3.70;99.90
12481;DHT22;6305;48.398;11.762;2023-11-21T06:30:09;3.60;99.90
12481;DHT22;6305;48.398;11.762;2023-11-21T06:32:37;3.60;99.90
12481;DHT22;6305;48.398;11.762;2023-11-21T06:35:06;3.60;99.90
12481;DHT22;6305;48.398;11.762;2023-11-21T06:37:35;3.70;99.90
12481;DHT22;6305;48.398;11.762;2023-11-21T06:40:05;3.80;99.90
12481;DHT22;6305;48.398;11.762;2023-11-21T06:42:33;3.80;99.90
12481;DHT22;6305;48.398;11.762;2023-11-21T06:45:00;3.80;99.90
12481;DHT22;6305;48.398;11.762;2023-11-21T06:47:32;3.70;99.90
12481;DHT22;6305;48.398;11.762;2023-11-21T06:50:00;3.70;99.90
12481;DHT22;6305;48.398;11.762;2023-11-21T06:52:27;3.80;99.90
12481;DHT22;6305;48.398;11.762;2023-11-21T06:54:54;3.80;99.90
12481;DHT22;6305;48.398;11.762;2023-11-21T06:57:24;3.90;99.90
12481;DHT22;6305;48.398;11.762;2023-11-21T06:59:51;4.00;99.90
12481;DHT22;6305;48.398;11.762;2023-11-21T07:02:18;4.10;99.90
12481;DHT22;6305;48.398;11.762;2023-11-21T07:04:45;4.30;99.90
12481;DHT22;6305;48.398;11.762;2023-11-21T07:07:13;4.30;99.90
12481;DHT22;6305;48.398;11.762;2023-11-21T07:09:40;4.40;99.90
12481;DHT22;6305;48.398;11.762;2023-11-21T07:12:07;4.50;99.90
12481;DHT22;6305;48.398;11.762;2023-11-21T07:14:36;4.70;99.90
12481;DHT22;6305;48.398;11.762;2023-11-21T07:17:04;4.80;99.90
12481;DHT22;6305;48.398;11.762;2023-11-21T07:19:32;5.00;99.90
12481;DHT22;6305;48.398;11.762;2023-11-21T07:22:00;5.20;99.90
12481;DHT22;6305;48.398;11.762;2023-11-21T07:24:29;5.30;99.90
12481;DHT22;6305;48.398;11.762;2023-11-21T07:26:57;5.40;99.90
12481;DHT22;6305;48.398;11.762;2023-11-21T07:29:25;5.40;99.90
12481;DHT22;6305;48.398;11.762;2023-11-21T07:31:55;5.50;99.90
12481;DHT22;6305;48.398;11.762;2023-11-21T07:34:22;5.60;99.90
12481;DHT22;6305;48.398;11.762;2023-11-21T07:36:52;5.70;99.90
12481;DHT22;6305;48.398;11.762;2023-11-21T07:39:19;5.80;99.90
12481;DHT22;6305;48.398;11.762;2023-11-21T07:41:46;6.00;99.90
12481;DHT22;6305;48.398;11.762;2023-11-21T07:44:16;6.10;99.90
12481;DHT22;6305;48.398;11.762;2023-11-21T07:46:45;6.30;99.90
12481;DHT22;6305;48.398;11.762;2023-11-21T07:49:14;6.40;99.90
12481;DHT22;6305;48.398;11.762;2023-11-21T07:51:41;6.50;99.90
12481;DHT22;6305;48.398;11.762;2023-11-21T07:54:09;6.60;99.90
12481;DHT22;6305;48.398;11.762;2023-11-21T07:56:36;6.80;99.90
12481;DHT22;6305;48.398;11.762;2023-11-21T07:59:03;6.90;99.90
12481;DHT22;6305;48.398;11.762;2023-11-21T08:01:31;7.00;99.90
12481;DHT22;6305;48.398;11.762;2023-11-21T08:03:59;7.10;99.90
12481;DHT22;6305;48.398;11.762;2023-11-21T08:06:31;7.20;99.90
12481;DHT22;6305;48.398;11.762;2023-11-21T08:08:59;7.30;99.90
12481;DHT22;6305;48.398;11.762;2023-11-21T08:11:32;7.30;99.90
12481;DHT22;6305;48.398;11.762;2023-11-21T08:14:02;7.20;99.90
12481;DHT22;6305;48.398;11.762;2023-11-21T08:16:31;7.30;99.90
12481;DHT22;6305;48.398;11.762;2023-11-21T08:18:59;7.40;99.90
12481;DHT22;6305;48.398;11.762;2023-11-21T08:21:27;7.50;99.90
12481;DHT22;6305;48.398;11.762;2023-11-21T08:23:58;7.60;99.90
12481;DHT22;6305;48.398;11.762;2023-11-21T08:26:29;7.80;99.90
12481;DHT22;6305;48.398;11.762;2023-11-21T08:28:57;8.00;99.90
12481;DHT22;6305;48.398;11.762;2023-11-21T08:31:25;8.20;99.90
12481;DHT22;6305;48.398;11.762;2023-11-21T08:33:54;8.40;99.90
12481;DHT22;6305;48.398;11.762;2023-11-21T08:36:27;8.80;99.90
12481;DHT22;6305;48.398;11.762;2023-11-21T08:38:56;8.90;99.90
12481;DHT22;6305;48.398;11.762;2023-11-21T08:41:24;9.00;99.90
12481;DHT22;6305;48.398;11.762;2023-11-21T08:43:53;9.00;99.90
12481;DHT22;6305;48.398;11.762;2023-11-21T08:46:21;9.10;99.90
12481;DHT22;6305;48.398;11.762;2023-11-21T08:48:48;9.20;99.90
12481;DHT22;6305;48.398;11.762;2023-11-21T08:51:18;9.40;99.90
12481;DHT22;6305;48.398;11.762;2023-11-21T08:53:46;9.70;99.90
12481;DHT22;6305;48.398;11.762;2023-11-21T08:56:14;10.00;99.90
12481;DHT22;6305;48.398;11.762;2023-11-21T08:58:41;10.60;99.90
12481;DHT22;6305;48.398;11.762;2023-11-21T09:01:08;11.80;99.90
12481;DHT22;6305;48.398;11.762;2023-11-21T09:03:35;12.70;99.90
12481;DHT22;6305;48.398;11.762;2023-11-21T09:06:03;13.60;99.90
12481;DHT22;6305;48.398;11.762;2023-11-21T09:08:31;14.60;99.90
12481;DHT22;6305;48.398;11.762;2023-11-21T09:10:58;14.80;99.90
12481;DHT22;6305;48.398;11.762;2023-11-21T09:13:27;14.70;99.90
12481;DHT22;6305;48.398;11.762;2023-11-21T09:15:55;15.00;99.90
12481;DHT22;6305;48.398;11.762;2023-11-21T09:18:22;16.00;99.90
12481;DHT22;6305;48.398;11.762;2023-11-21T09:20:49;16.90;99.90
12481;DHT22;6305;48.398;11.762;2023-11-21T09:23:17;17.20;96.20
12481;DHT22;6305;48.398;11.762;2023-11-21T09:25:46;16.80;96.60
12481;DHT22;6305;48.398;11.762;2023-11-21T09:28:15;17.10;96.20
12481;DHT22;6305;48.398;11.762;2023-11-21T09:30:44;17.30;96.40
12481;DHT22;6305;48.398;11.762;2023-11-21T09:33:11;16.70;96.00
12481;DHT22;6305;48.398;11.762;2023-11-21T09:35:41;15.90;98.50
12481;DHT22;6305;48.398;11.762;2023-11-21T09:38:09;15.80;99.90
12481;DHT22;6305;48.398;11.762;2023-11-21T09:40:37;15.30;99.90
12481;DHT22;6305;48.398;11.762;2023-11-21T09:43:07;14.80;99.90
12481;DHT22;6305;48.398;11.762;2023-11-21T09:45:40;15.00;99.90
12481;DHT22;6305;48.398;11.762;2023-11-21T09:48:13;15.50;99.90
12481;DHT22;6305;48.398;11.762;2023-11-21T09:50:42;15.10;99.90
12481;DHT22;6305;48.398;11.762;2023-11-21T09:53:13;14.70;99.90
12481;DHT22;6305;48.398;11.762;2023-11-21T09:55:45;14.50;99.90
12481;DHT22;6305;48.398;11.762;2023-11-21T09:58:13;14.30;99.90
12481;DHT22;6305;48.398;11.762;2023-11-21T10:00:42;14.10;99.90
12481;DHT22;6305;48.398;11.762;2023-11-21T10:03:10;13.70;99.90
12481;DHT22;6305;48.398;11.762;2023-11-21T10:05:42;13.10;99.90
12481;DHT22;6305;48.398;11.762;2023-11-21T10:08:11;12.50;99.90
12481;DHT22;6305;48.398;11.762;2023-11-21T10:10:43;12.10;99.90
12481;DHT22;6305;48.398;11.762;2023-11-21T10:13:12;12.00;99.90
12481;DHT22;6305;48.398;11.762;2023-11-21T10:15:42;11.90;99.90
12481;DHT22;6305;48.398;11.762;2023-11-21T10:18:15;11.70;99.90
12481;DHT22;6305;48.398;11.762;2023-11-21T10:20:49;11.30;99.90
12481;DHT22;6305;48.398;11.762;2023-11-21T10:23:19;11.30;99.90
12481;DHT22;6305;48.398;11.762;2023-11-21T10:25:46;11.20;99.90
12481;DHT22;6305;48.398;11.762;2023-11-21T10:28:14;11.20;99.90
12481;DHT22;6305;48.398;11.762;2023-11-21T10:30:42;11.30;99.90
12481;DHT22;6305;48.398;11.762;2023-11-21T10:33:10;11.50;99.90
12481;DHT22;6305;48.398;11.762;2023-11-21T10:35:43;11.50;99.90
12481;DHT22;6305;48.398;11.762;2023-11-21T10:38:14;11.60;99.90
12481;DHT22;6305;48.398;11.762;2023-11-21T10:40:41;11.60;99.90
12481;DHT22;6305;48.398;11.762;2023-11-21T10:43:12;11.50;99.90
12481;DHT22;6305;48.398;11.762;2023-11-21T10:45:41;11.30;99.90
12481;DHT22;6305;48.398;11.762;2023-11-21T10:48:10;11.10;99.90
12481;DHT22;6305;48.398;11.762;2023-11-21T10:50:37;10.90;99.90
12481;DHT22;6305;48.398;11.762;2023-11-21T10:53:05;10.90;99.90
12481;DHT22;6305;48.398;11.762;2023-11-21T10:55:34;10.90;99.90
12481;DHT22;6305;48.398;11.762;2023-11-21T10:58:03;10.90;99.90
12481;DHT22;6305;48.398;11.762;2023-11-21T11:00:31;10.90;99.90
12481;DHT22;6305;48.398;11.762;2023-11-21T11:02:59;10.80;99.90
12481;DHT22;6305;48.398;11.762;2023-11-21T11:05:27;10.80;99.90
12481;DHT22;6305;48.398;11.762;2023-11-21T11:07:59;10.90;99.90
12481;DHT22;6305;48.398;11.762;2023-11-21T11:10:27;10.90;99.90
12481;DHT22;6305;48.398;11.762;2023-11-21T11:12:57;10.90;99.90
12481;DHT22;6305;48.398;11.762;2023-11-21T11:15:25;11.00;99.90
12481;DHT22;6305;48.398;11.762;2023-11-21T11:17:53;11.00;99.90
12481;DHT22;6305;48.398;11.762;2023-11-21T11:20:24;11.20;99.90
12481;DHT22;6305;48.398;11.762;2023-11-21T11:23:04;11.40;99.90
12481;DHT22;6305;48.398;11.762;2023-11-21T11:25:44;11.70;99.90
12481;DHT22;6305;48.398;11.762;2023-11-21T11:28:20;12.30;99.90
12481;DHT22;6305;48.398;11.762;2023-11-21T11:30:59;13.40;99.90
12481;DHT22;6305;48.398;11.762;2023-11-21T11:33:36;15.60;99.90
12481;DHT22;6305;48.398;11.762;2023-11-21T11:36:08;17.30;99.90
12481;DHT22;6305;48.398;11.762;2023-11-21T11:38:38;17.90;99.60
12481;DHT22;6305;48.398;11.762;2023-11-21T11:41:06;17.70;94.60
12481;DHT22;6305;48.398;11.762;2023-11-21T11:43:36;17.20;93.80
12481;DHT22;6305;48.398;11.762;2023-11-21T11:46:10;16.70;93.70
12481;DHT22;6305;48.398;11.762;2023-11-21T11:48:39;16.10;94.70
12481;DHT22;6305;48.398;11.762;2023-11-21T11:51:09;15.40;98.10
12481;DHT22;6305;48.398;11.762;2023-11-21T11:53:39;14.80;99.90
12481;DHT22;6305;48.398;11.762;2023-11-21T11:56:26;14.40;99.90
12481;DHT22;6305;48.398;11.762;2023-11-21T11:58:56;14.00;99.90
12481;DHT22;6305;48.398;11.762;2023-11-21T12:01:25;13.60;99.90
12481;DHT22;6305;48.398;11.762;2023-11-21T12:04:26;13.20;99.90
12481;DHT22;6305;48.398;11.762;2023-11-21T12:07:04;12.80;99.90
12481;DHT22;6305;48.398;11.762;2023-11-21T12:09:32;12.90;99.90
12481;DHT22;6305;48.398;11.762;2023-11-21T12:12:00;13.70;99.90
12481;DHT22;6305;48.398;11.762;2023-11-21T12:14:28;14.60;99.90
12481;DHT22;6305;48.398;11.762;2023-11-21T12:16:55;15.00;99.90
12481;DHT22;6305;48.398;11.762;2023-11-21T12:19:23;15.00;99.90
12481;DHT22;6305;48.398;11.762;2023-11-21T12:21:50;14.70;99.90
12481;DHT22;6305;48.398;11.762;2023-11-21T12:24:20;14.20;99.90
12481;DHT22;6305;48.398;11.762;2023-11-21T12:26:49;13.60;99.90
12481;DHT22;6305;48.398;11.762;2023-11-21T12:29:16;13.20;99.90
12481;DHT22;6305;48.398;11.762;2023-11-21T12:31:45;13.00;99.90
12481;DHT22;6305;48.398;11.762;2023-11-21T12:34:15;12.60;99.90
12481;DHT22;6305;48.398;11.762;2023-11-21T12:36:43;12.30;99.90
12481;DHT22;6305;48.398;11.762;2023-11-21T12:39:13;11.90;99.90
12481;DHT22;6305;48.398;11.762;2023-11-21T12:41:43;11.70;99.90
12481;DHT22;6305;48.398;11.762;2023-11-21T12:44:12;11.60;99.90
12481;DHT22;6305;48.398;11.762;2023-11-21T12:46:42;11.50;99.90
12481;DHT22;6305;48.398;11.762;2023-11-21T12:49:13;11.50;99.90
12481;DHT22;6305;48.398;11.762;2023-11-21T12:51:44;11.40;99.90
12481;DHT22;6305;48.398;11.762;2023-11-21T12:54:12;11.40;99.90
12481;DHT22;6305;48.398;11.762;2023-11-21T12:56:39;11.50;99.90
12481;DHT22;6305;48.398;11.762;2023-11-21T12:59:07;12.20;99.90
12481;DHT22;6305;48.398;11.762;2023-11-21T13:01:43;12.50;99.90
12481;DHT22;6305;48.398;11.762;2023-11-21T13:04:11;12.40;99.90
12481;DHT22;6305;48.398;11.762;2023-11-21T13:06:42;12.10;99.90
12481;DHT22;6305;48.398;11.762;2023-11-21T13:09:12;11.70;99.90
12481;DHT22;6305;48.398;11.762;2023-11-21T13:11:47;11.20;99.90
12481;DHT22;6305;48.398;11.762;2023-11-21T13:14:15;10.60;99.90
12481;DHT22;6305;48.398;11.762;2023-11-21T13:16:43;10.00;99.90
12481;DHT22;6305;48.398;11.762;2023-11-21T13:19:12;9.60;99.90
12481;DHT22;6305;48.398;11.762;2023-11-21T13:21:41;9.20;99.90
12481;DHT22;6305;48.398;11.762;2023-11-21T13:24:08;9.00;99.90
12481;DHT22;6305;48.398;11.762;2023-11-21T13:26:36;8.80;99.90
12481;DHT22;6305;48.398;11.762;2023-11-21T13:29:06;8.80;99.90
12481;DHT22;6305;48.398;11.762;2023-11-21T13:31:33;8.80;99.90
12481;DHT22;6305;48.398;11.762;2023-11-21T13:34:03;8.80;99.90
12481;DHT22;6305;48.398;11.762;2023-11-21T13:36:31;9.00;99.90
12481;DHT22;6305;48.398;11.762;2023-11-21T13:39:00;9.10;99.90
12481;DHT22;6305;48.398;11.762;2023-11-21T13:41:33;9.10;99.90
12481;DHT22;6305;48.398;11.762;2023-11-21T13:44:00;9.30;99.90
12481;DHT22;6305;48.398;11.762;2023-11-21T13:46:40;9.30;99.90
12481;DHT22;6305;48.398;11.762;2023-11-21T13:49:07;9.30;99.90
12481;DHT22;6305;48.398;11.762;2023-11-21T13:51:36;9.40;99.90
12481;DHT22;6305;48.398;11.762;2023-11-21T13:54:08;9.30;99.90
12481;DHT22;6305;48.398;11.762;2023-11-21T13:56:35;9.30;99.90
12481;DHT22;6305;48.398;11.762;2023-11-21T13:59:03;9.20;99.90
12481;DHT22;6305;48.398;11.762;2023-11-21T14:01:41;9.00;99.90
12481;DHT22;6305;48.398;11.762;2023-11-21T14:04:29;8.90;99.90
12481;DHT22;6305;48.398;11.762;2023-11-21T14:07:12;8.80;99.90
12481;DHT22;6305;48.398;11.762;2023-11-21T14:09:52;8.80;99.90
12481;DHT22;6305;48.398;11.762;2023-11-21T14:12:19;8.70;99.90
12481;DHT22;6305;48.398;11.762;2023-11-21T14:14:47;8.70;99.90
12481;DHT22;6305;48.398;11.762;2023-11-21T14:17:17;8.60;99.90
12481;DHT22;6305;48.398;11.762;2023-11-21T14:19:50;8.40;99.90
12481;DHT22;6305;48.398;11.762;2023-11-21T14:22:20;8.30;99.90
12481;DHT22;6305;48.398;11.762;2023-11-21T14:25:04;8.30;99.90
12481;DHT22;6305;48.398;11.762;2023-11-21T14:27:31;8.20;99.90
12481;DHT22;6305;48.398;11.762;2023-11-21T14:29:59;8.10;99.90
12481;DHT22;6305;48.398;11.762;2023-11-21T14:32:27;8.00;99.90
12481;DHT22;6305;48.398;11.762;2023-11-21T14:34:54;7.90;99.90
12481;DHT22;6305;48.398;11.762;2023-11-21T14:37:23;7.80;99.90
12481;DHT22;6305;48.398;11.762;2023-11-21T14:40:13;7.80;99.90
12481;DHT22;6305;48.398;11.762;2023-11-21T14:42:42;7.90;99.90
12481;DHT22;6305;48.398;11.762;2023-11-21T14:45:13;7.90;99.90
12481;DHT22;6305;48.398;11.762;2023-11-21T14:47:48;7.90;99.90
12481;DHT22;6305;48.398;11.762;2023-11-21T14:50:24;8.00;99.90
12481;DHT22;6305;48.398;11.762;2023-11-21T14:53:17;8.00;99.90
12481;DHT22;6305;48.398;11.762;2023-11-21T14:56:07;7.90;99.90
12481;DHT22;6305;48.398;11.762;2023-11-21T14:58:34;7.90;99.90
12481;DHT22;6305;48.398;11.762;2023-11-21T15:01:03;7.80;99.90
12481;DHT22;6305;48.398;11.762;2023-11-21T15:03:29;7.80;99.90
12481;DHT22;6305;48.398;11.762;2023-11-21T15:06:16;7.70;99.90
12481;DHT22;6305;48.398;11.762;2023-11-21T15:08:48;7.70;99.90
12481;DHT22;6305;48.398;11.762;2023-11-21T15:11:26;7.60;99.90
12481;DHT22;6305;48.398;11.762;2023-11-21T15:13:57;7.50;99.90
12481;DHT22;6305;48.398;11.762;2023-11-21T15:16:24;7.50;99.90
12481;DHT22;6305;48.398;11.762;2023-11-21T15:18:52;7.50;99.90
12481;DHT22;6305;48.398;11.762;2023-11-21T15:21:20;7.50;99.90
12481;DHT22;6305;48.398;11.762;2023-11-21T15:23:50;7.40;99.90
12481;DHT22;6305;48.398;11.762;2023-11-21T15:26:17;7.40;99.90
12481;DHT22;6305;48.398;11.762;2023-11-21T15:28:45;7.40;99.90
12481;DHT22;6305;48.398;11.762;2023-11-21T15:31:13;7.30;99.90
12481;DHT22;6305;48.398;11.762;2023-11-21T15:33:42;7.30;99.90
12481;DHT22;6305;48.398;11.762;2023-11-21T15:36:09;7.30;99.90
12481;DHT22;6305;48.398;11.762;2023-11-21T15:38:38;7.20;99.90
12481;DHT22;6305;48.398;11.762;2023-11-21T15:41:06;7.20;99.90
12481;DHT22;6305;48.398;11.762;2023-11-21T15:43:35;7.20;99.90
12481;DHT22;6305;48.398;11.762;2023-11-21T15:46:04;7.20;99.90
12481;DHT22;6305;48.398;11.762;2023-11-21T15:48:34;7.20;99.90
12481;DHT22;6305;48.398;11.762;2023-11-21T15:51:01;7.20;99.90
12481;DHT22;6305;48.398;11.762;2023-11-21T15:53:30;7.10;99.90